Time;durP1;ratioP1;P1;durP2;ratioP2;P2;SDS_P1;SDS_P2;PMS_P1;PMS_P2;Temp;Humidity;BMP_temperature;BMP_pressure;BME280_temperature;BME280_humidity;BME280_pressure;Samples;Min_cycle;Max_cycle;Signal;HPM_P1;HPM_P2
2021/09/27 00:02:19;;;;;;;;;;;;;;;-144.99;100.00;52380.84;5046655;28;19971;-74
2021/09/27 00:04:47;;;;;;;;;;;;;;;-144.99;100.00;52378.78;5046625;28;20002;-74
2021/09/27 00:07:13;;;;;;;;;;;;;;;-144.99;100.00;52346.19;5046111;28;20123;-76
2021/09/27 00:09:39;;;;;;;;;;;;;;;-144.99;100.00;52358.41;5046346;28;19972;-76
2021/09/27 00:12:08;;;;;;;;;;;;;;;-144.99;100.00;52358.41;5048280;28;20457;-79
2021/09/27 00:14:35;;;;;;;;;;;;;;;-144.99;100.00;52372.69;5046134;28;19992;-79
2021/09/27 00:17:03;;;;;;;;;;;;;;;-144.99;100.00;52342.09;5048092;28;19973;-78
2021/09/27 00:19:29;;;;;;;;;;;;;;;-144.99;100.00;52364.53;5046306;28;19980;-78
2021/09/27 00:21:57;;;;;;;;;;;;;;;-144.99;100.00;52366.56;5048667;28;19973;-79
2021/09/27 00:24:23;;;;;;;;;;;;;;;-144.99;100.00;52356.38;5046034;28;19929;-81
2021/09/27 00:26:50;;;;;;;;;;;;;;;-144.99;100.00;52313.56;5047719;28;19942;-79
2021/09/27 00:29:16;;;;;;;;;;;;;;;-144.99;100.00;52370.63;5046476;28;20279;-78
2021/09/27 00:31:43;;;;;;;;;;;;;;;-144.99;100.00;52382.88;5044933;28;19961;-76
2021/09/27 00:34:09;;;;;;;;;;;;;;;-144.99;100.00;52382.88;5043103;28;20478;-77
2021/09/27 00:36:35;;;;;;;;;;;;;;;-144.99;100.00;52386.94;5046408;28;19976;-77
2021/09/27 00:39:04;;;;;;;;;;;;;;;-144.99;100.00;52376.75;5044895;28;19976;-76
2021/09/27 00:41:31;;;;;;;;;;;;;;;-144.99;100.00;52346.19;5048344;28;20430;-76
2021/09/27 00:43:58;;;;;;;;;;;;;;;-144.99;100.00;52354.34;5045220;28;20449;-76
2021/09/27 00:46:26;;;;;;;;;;;;;;;-144.99;100.00;52374.72;5046470;28;19983;-76
2021/09/27 00:48:54;;;;;;;;;;;;;;;-144.99;100.00;52358.41;5047104;28;19972;-77
2021/09/27 00:51:23;;;;;;;;;;;;;;;-144.99;100.00;52352.28;5043090;28;19977;-77
2021/09/27 00:53:52;;;;;;;;;;;;;;;-144.99;100.00;52395.09;5046440;28;19987;-77
2021/09/27 00:56:21;;;;;;;;;;;;;;;-144.99;100.00;52350.25;5042893;28;19976;-77
2021/09/27 00:58:48;;;;;;;;;;;;;;;-144.99;100.00;52378.78;5044834;28;20446;-78
2021/09/27 01:01:15;;;;;;;;;;;;;;;-144.99;100.00;52370.63;5050397;28;20021;-76
2021/09/27 01:03:42;;;;;;;;;;;;;;;-144.99;100.00;52338.03;5058863;28;20331;-79
2021/09/27 01:06:21;;;;;;;;;;;;;;;-144.99;100.00;52391.03;5054824;28;20081;-76
2021/09/27 01:08:53;;;;;;;;;;;;;;;-144.99;100.00;52358.41;5051219;28;20002;-77
2021/09/27 01:11:30;;;;;;;;;;;;;;;-144.99;100.00;52397.13;5048198;28;20179;-75
2021/09/27 01:14:13;;;;;;;;;;;;;;;-144.99;100.00;52378.78;5046965;28;19996;-75
2021/09/27 01:16:43;;;;;;;;;;;;;;;-144.99;100.00;52362.50;5049979;28;20059;-78
2021/09/27 01:19:33;;;;;;;;;;;;;;;-144.99;100.00;52376.75;5049491;28;20018;-75
2021/09/27 01:22:05;;;;;;;;;;;;;;;-144.99;100.00;52376.75;5047938;28;19976;-76
2021/09/27 01:24:59;;;;;;;;;;;;;;;-144.99;100.00;52358.41;5047841;28;19992;-78
2021/09/27 01:27:52;;;;;;;;;;;;;;;-144.99;100.00;52338.03;5046184;28;19980;-77
2021/09/27 01:30:34;;;;;;;;;;;;;;;-144.99;100.00;52382.88;5010451;28;19981;-76
2021/09/27 01:33:03;;;;;;;;;;;;;;;-144.99;100.00;52380.84;5046391;28;19988;-76
2021/09/27 01:35:32;;;;;;;;;;;;;;;-144.99;100.00;52336.00;5046465;28;19996;-77
2021/09/27 01:38:04;;;;;;;;;;;;;;;-144.99;100.00;52342.09;5046479;28;19973;-75
2021/09/27 01:40:34;;;;;;;;;;;;;;;-144.99;100.00;52391.03;5046414;28;20030;-77
2021/09/27 01:43:04;;;;;;;;;;;;;;;-144.99;100.00;52336.00;5048008;28;19971;-74
2021/09/27 01:45:35;;;;;;;;;;;;;;;-144.99;100.00;52378.78;5046898;28;19991;-77
2021/09/27 01:48:06;;;;;;;;;;;;;;;-144.99;100.00;52403.25;5047600;28;19978;-74
2021/09/27 01:50:36;;;;;;;;;;;;;;;-144.99;100.00;52378.78;5047410;28;19988;-76
2021/09/27 01:53:06;;;;;;;;;;;;;;;-144.99;100.00;52374.72;5047083;28;21615;-77
2021/09/27 01:55:41;;;;;;;;;;;;;;;-144.99;100.00;52344.16;5046049;28;19997;-74
2021/09/27 01:58:12;;;;;;;;;;;;;;;-144.99;100.00;52382.88;5047514;28;20417;-77
2021/09/27 02:00:40;;;;;;;;;;;;;;;-144.99;100.00;52382.88;5046262;28;20018;-75
2021/09/27 02:03:12;;;;;;;;;;;;;;;-144.99;100.00;52376.75;5047531;28;19980;-75
2021/09/27 02:05:41;;;;;;;;;;;;;;;-144.99;100.00;52370.63;5046570;28;19937;-77
2021/09/27 02:08:10;;;;;;;;;;;;;;;-144.99;100.00;52386.94;5047521;28;19985;-79
2021/09/27 02:10:37;;;;;;;;;;;;;;;-144.99;100.00;52358.41;5049931;28;20643;-77
2021/09/27 02:13:07;;;;;;;;;;;;;;;-144.99;100.00;52417.53;5046077;28;19996;-78
2021/09/27 02:15:36;;;;;;;;;;;;;;;-144.99;100.00;52362.50;5046952;28;20349;-76
2021/09/27 02:18:04;;;;;;;;;;;;;;;-144.99;100.00;52368.59;5046336;28;20469;-76
2021/09/27 02:20:34;;;;;;;;;;;;;;;-144.99;100.00;52370.63;5046550;28;19982;-77
2021/09/27 02:23:02;;;;;;;;;;;;;;;-144.99;100.00;52395.09;5046453;28;19971;-77
2021/09/27 02:25:33;;;;;;;;;;;;;;;-144.99;100.00;52395.09;5048359;28;20006;-79
2021/09/27 02:28:01;;;;;;;;;;;;;;;-144.99;100.00;52342.09;5049510;28;19970;-78
2021/09/27 02:30:32;;;;;;;;;;;;;;;-144.99;100.00;52395.09;5046374;28;20094;-78
2021/09/27 02:33:01;;;;;;;;;;;;;;;-144.99;100.00;52331.91;5044075;28;20003;-77
2021/09/27 02:35:30;;;;;;;;;;;;;;;-144.99;100.00;52356.38;5043177;28;19995;-77
2021/09/27 02:38:02;;;;;;;;;;;;;;;-144.99;100.00;52366.56;5044873;28;19979;-77
2021/09/27 02:40:33;;;;;;;;;;;;;;;-144.99;100.00;52391.03;5045865;28;20370;-78
2021/09/27 02:43:00;;;;;;;;;;;;;;;-144.99;100.00;52370.63;5045554;28;19986;-77
2021/09/27 02:45:28;;;;;;;;;;;;;;;-144.99;100.00;52338.03;5047316;28;19998;-78
2021/09/27 02:47:58;;;;;;;;;;;;;;;-144.99;100.00;52407.31;5046314;28;19983;-78
2021/09/27 02:50:27;;;;;;;;;;;;;;;-144.99;100.00;52395.09;5045900;28;20006;-78
2021/09/27 02:52:54;;;;;;;;;;;;;;;-144.99;100.00;52374.72;5046136;28;20276;-78
2021/09/27 02:55:25;;;;;;;;;;;;;;;-144.99;100.00;52370.63;5062030;28;20049;-76
2021/09/27 02:58:04;;;;;;;;;;;;;;;-144.99;100.00;52386.94;5069294;28;19979;-79
2021/09/27 03:00:36;;;;;;;;;;;;;;;-144.99;100.00;52352.28;5065776;28;19983;-76
2021/09/27 03:03:09;;;;;;;;;;;;;;;-144.99;100.00;52391.03;5067678;28;19940;-78
2021/09/27 03:05:43;;;;;;;;;;;;;;;-144.99;100.00;52391.03;5067644;28;20060;-77
2021/09/27 03:08:18;;;;;;;;;;;;;;;-144.99;100.00;52354.34;5070723;28;20078;-83
2021/09/27 03:10:56;;;;;;;;;;;;;;;-144.99;100.00;52374.72;5069905;28;19972;-78
2021/09/27 03:13:26;;;;;;;;;;;;;;;-144.99;100.00;52354.34;5050698;28;20015;-77
2021/09/27 03:16:02;;;;;;;;;;;;;;;-144.99;100.00;52346.19;5048972;28;19988;-76
2021/09/27 03:18:37;;;;;;;;;;;;;;;-144.99;100.00;52382.88;5046216;28;20426;-78
2021/09/27 03:21:11;;;;;;;;;;;;;;;-144.99;100.00;52401.22;5044914;28;20023;-78
2021/09/27 03:23:41;;;;;;;;;;;;;;;-144.99;100.00;52374.72;5044934;28;20676;-78
2021/09/27 03:26:18;;;;;;;;;;;;;;;-144.99;100.00;52386.94;5042900;28;20016;-77
2021/09/27 03:28:53;;;;;;;;;;;;;;;-144.99;100.00;52366.56;5045712;28;19973;-78
2021/09/27 03:31:22;;;;;;;;;;;;;;;-144.99;100.00;52366.56;5046443;28;19976;-80
2021/09/27 03:33:55;;;;;;;;;;;;;;;-144.99;100.00;52362.50;5046992;28;20012;-77
2021/09/27 03:36:39;;;;;;;;;;;;;;;-144.99;100.00;52378.78;5046343;28;20644;-79
2021/09/27 03:39:10;;;;;;;;;;;;;;;-144.99;100.00;52370.63;5051014;28;19977;-77
2021/09/27 03:41:40;;;;;;;;;;;;;;;-144.99;100.00;52378.78;5048177;28;20460;-78
2021/09/27 03:44:11;;;;;;;;;;;;;;;-144.99;100.00;52354.34;5045628;28;19979;-79
2021/09/27 03:46:42;;;;;;;;;;;;;;;-144.99;100.00;52378.78;5045384;28;19979;-79
2021/09/27 03:49:12;;;;;;;;;;;;;;;-144.99;100.00;52368.59;5044998;28;19982;-78
2021/09/27 03:51:44;;;;;;;;;;;;;;;-144.99;100.00;52378.78;5047915;28;20199;-77
2021/09/27 03:54:15;;;;;;;;;;;;;;;-144.99;100.00;52378.78;5049411;28;19987;-78
2021/09/27 03:56:46;;;;;;;;;;;;;;;-144.99;100.00;52376.75;5047563;28;19972;-77
2021/09/27 03:59:15;;;;;;;;;;;;;;;-144.99;100.00;52403.25;5044211;28;20003;-78
2021/09/27 04:01:44;;;;;;;;;;;;;;;-144.99;100.00;52342.09;5044208;28;20059;-78
2021/09/27 04:04:30;;;;;;;;;;;;;;;-144.99;100.00;52380.84;5043666;28;19973;-79
2021/09/27 04:07:06;;;;;;;;;;;;;;;-144.99;100.00;52354.34;5042729;28;19977;-76
2021/09/27 04:09:37;;;;;;;;;;;;;;;-144.99;100.00;52350.25;5044273;28;20063;-76
2021/09/27 04:12:12;;;;;;;;;;;;;;;-144.99;100.00;52354.34;5044480;28;19973;-78
2021/09/27 04:14:44;;;;;;;;;;;;;;;-144.99;100.00;52382.88;5044942;28;19997;-78
2021/09/27 04:17:14;;;;;;;;;;;;;;;-144.99;100.00;52342.09;5046776;28;19980;-80
2021/09/27 04:19:50;;;;;;;;;;;;;;;-144.99;100.00;52333.94;5044109;28;19984;-74
2021/09/27 04:22:20;;;;;;;;;;;;;;;-144.99;100.00;52378.78;5043955;28;19982;-74
2021/09/27 04:24:53;;;;;;;;;;;;;;;-144.99;100.00;52350.25;5044560;28;20008;-75
2021/09/27 04:27:26;;;;;;;;;;;;;;;-144.99;100.00;52407.31;5070200;22;20102;-72
2021/09/27 04:30:06;;;;;;;;;;;;;;;-144.99;100.00;52386.94;5044505;28;19972;-72
2021/09/27 04:32:40;;;;;;;;;;;;;;;-144.99;100.00;52378.78;5052218;28;19999;-73
2021/09/27 04:35:12;;;;;;;;;;;;;;;-144.99;100.00;52354.34;5048456;28;19996;-73
2021/09/27 04:37:38;;;;;;;;;;;;;;;-144.99;100.00;52374.72;5047832;28;19990;-73
2021/09/27 04:40:08;;;;;;;;;;;;;;;-144.99;100.00;52384.91;5059277;28;20240;-74
2021/09/27 04:42:55;;;;;;;;;;;;;;;-144.99;100.00;52362.50;5052547;28;19979;-72
2021/09/27 04:45:32;;;;;;;;;;;;;;;-144.99;100.00;52358.41;5040967;28;20002;-75
2021/09/27 04:48:07;;;;;;;;;;;;;;;-144.99;100.00;52382.88;5055348;28;19996;-75
2021/09/27 04:50:41;;;;;;;;;;;;;;;-144.99;100.00;52403.25;5053683;28;20349;-74
2021/09/27 04:53:17;;;;;;;;;;;;;;;-144.99;100.00;52350.25;5064489;28;19976;-75
2021/09/27 04:55:51;;;;;;;;;;;;;;;-144.99;100.00;52352.28;5057801;28;19973;-75
2021/09/27 04:58:32;;;;;;;;;;;;;;;-144.99;100.00;52382.88;4355922;28;10020741;-76
2021/09/27 05:01:06;;;;;;;;;;;;;;;-144.99;100.00;52342.09;4714598;28;9999796;-76
2021/09/27 05:03:42;;;;;;;;;;;;;;;-144.99;100.00;52382.88;5063589;28;20378;-76
2021/09/27 05:06:22;;;;;;;;;;;;;;;-144.99;100.00;52376.75;5062683;28;20468;-75
2021/09/27 05:09:01;;;;;;;;;;;;;;;-144.99;100.00;52386.94;5046440;28;20000;-75
2021/09/27 05:11:46;;;;;;;;;;;;;;;-144.99;100.00;52358.41;5044201;28;19981;-78
2021/09/27 05:14:35;;;;;;;;;;;;;;;-144.99;100.00;52382.88;5050395;28;20001;-76
2021/09/27 05:17:15;;;;;;;;;;;;;;;-144.99;100.00;52382.88;5043772;28;19980;-76
2021/09/27 05:19:55;;;;;;;;;;;;;;;-144.99;100.00;52358.41;5038951;28;19981;-75
2021/09/27 05:22:39;;;;;;;;;;;;;;;-144.99;100.00;52403.25;5049641;28;19976;-75
2021/09/27 05:25:23;;;;;;;;;;;;;;;-144.99;100.00;52378.78;5052677;28;20083;-75
2021/09/27 05:27:56;;;;;;;;;;;;;;;-144.99;100.00;52386.94;5047173;28;20284;-75
2021/09/27 05:30:29;;;;;;;;;;;;;;;-144.99;100.00;52358.41;5051278;28;19983;-76
2021/09/27 05:33:01;;;;;;;;;;;;;;;-144.99;100.00;52368.59;5061640;28;19995;-75
2021/09/27 05:35:36;;;;;;;;;;;;;;;-144.99;100.00;52372.69;5050405;28;19995;-76
2021/09/27 05:38:09;;;;;;;;;;;;;;;-144.99;100.00;52395.09;5049534;28;19992;-75
2021/09/27 05:40:40;;;;;;;;;;;;;;;-144.99;100.00;52388.97;5049730;28;19980;-75
2021/09/27 05:43:22;;;;;;;;;;;;;;;-144.99;100.00;52362.50;5048930;28;20002;-77
2021/09/27 05:45:54;;;;;;;;;;;;;;;-144.99;100.00;52391.03;5043622;28;19980;-77
2021/09/27 05:48:27;;;;;;;;;;;;;;;-144.99;100.00;52388.97;5049444;28;20062;-75
2021/09/27 05:50:55;;;;;;;;;;;;;;;-144.99;100.00;52386.94;5044068;28;19972;-75
2021/09/27 05:53:25;;;;;;;;;;;;;;;-144.99;100.00;52386.94;5037199;28;20378;-74
2021/09/27 05:55:56;;;;;;;;;;;;;;;-144.99;100.00;52350.25;5043954;28;20003;-75
2021/09/27 05:58:26;;;;;;;;;;;;;;;-144.99;100.00;52362.50;5050274;28;20000;-76
2021/09/27 06:00:56;;;;;;;;;;;;;;;-144.99;100.00;52423.63;5048879;28;19987;-76
2021/09/27 06:03:40;;;;;;;;;;;;;;;-144.99;100.00;52374.72;5050463;28;19977;-76
2021/09/27 06:06:21;;;;;;;;;;;;;;;-144.99;100.00;52368.59;5050001;28;20034;-75
2021/09/27 06:08:51;;;;;;;;;;;;;;;-144.99;100.00;52399.19;5049558;28;20024;-75
2021/09/27 06:11:22;;;;;;;;;;;;;;;-144.99;100.00;52384.91;5048706;28;19985;-74
2021/09/27 06:13:50;;;;;;;;;;;;;;;-144.99;100.00;52358.41;5037332;28;20034;-75
2021/09/27 06:16:22;;;;;;;;;;;;;;;-144.99;100.00;52362.50;5034218;28;19985;-73
2021/09/27 06:18:57;;;;;;;;;;;;;;;-144.99;100.00;52370.63;5048635;28;20087;-73
2021/09/27 06:21:33;;;;;;;;;;;;;;;-144.99;100.00;52423.63;5047357;28;19975;-75
2021/09/27 06:24:12;;;;;;;;;;;;;;;-144.99;100.00;52395.09;5045904;28;19983;-77
2021/09/27 06:26:44;;;;;;;;;;;;;;;-144.99;100.00;52362.50;5040247;28;19977;-76
2021/09/27 06:29:14;;;;;;;;;;;;;;;-144.99;100.00;52358.41;5036096;28;20001;-76
2021/09/27 06:31:42;;;;;;;;;;;;;;;-144.99;100.00;52382.88;5048305;28;20008;-76
2021/09/27 06:34:15;;;;;;;;;;;;;;;-144.99;100.00;52391.03;5046415;28;20364;-75
2021/09/27 06:36:43;;;;;;;;;;;;;;;-144.99;100.00;52360.44;5041448;28;19984;-74
2021/09/27 06:39:14;;;;;;;;;;;;;;;-144.99;100.00;52395.09;5048783;28;20443;-76
2021/09/27 06:41:41;;;;;;;;;;;;;;;-144.99;100.00;52403.25;5048405;28;19983;-76
2021/09/27 06:44:07;;;;;;;;;;;;;;;-144.99;100.00;52342.09;5041040;28;20591;-76
2021/09/27 06:46:34;;;;;;;;;;;;;;;-144.99;100.00;52386.94;5044238;28;19972;-76
2021/09/27 06:49:00;;;;;;;;;;;;;;;-144.99;100.00;52411.41;5047884;28;20491;-75
2021/09/27 06:51:28;;;;;;;;;;;;;;;-144.99;100.00;52403.25;5049122;28;20057;-75
2021/09/27 06:53:54;;;;;;;;;;;;;;;-144.99;100.00;52366.56;5041122;28;20461;-78
2021/09/27 06:56:21;;;;;;;;;;;;;;;-144.99;100.00;52395.09;5044027;28;19977;-76
2021/09/27 06:58:47;;;;;;;;;;;;;;;-144.99;100.00;52374.72;5039673;28;19993;-76
2021/09/27 07:01:13;;;;;;;;;;;;;;;-144.99;100.00;52374.72;5044586;28;19988;-76
2021/09/27 07:03:40;;;;;;;;;;;;;;;-144.99;100.00;52395.09;5050153;28;20527;-77
2021/09/27 07:06:06;;;;;;;;;;;;;;;-144.99;100.00;52370.63;5047332;28;19976;-76
2021/09/27 07:08:34;;;;;;;;;;;;;;;-144.99;100.00;52362.50;5047905;28;20183;-75
2021/09/27 07:11:00;;;;;;;;;;;;;;;-144.99;100.00;52356.38;5044270;28;20005;-76
2021/09/27 07:13:26;;;;;;;;;;;;;;;-144.99;100.00;52386.94;5038275;28;19981;-76
2021/09/27 07:15:53;;;;;;;;;;;;;;;-144.99;100.00;52395.09;5043057;28;20000;-76
2021/09/27 07:18:19;;;;;;;;;;;;;;;-144.99;100.00;52370.63;5048155;28;20520;-75
2021/09/27 07:20:46;;;;;;;;;;;;;;;-144.99;100.00;52378.78;5046908;28;19973;-75
2021/09/27 07:23:12;;;;;;;;;;;;;;;-144.99;100.00;52372.69;5047534;28;20265;-75
2021/09/27 07:25:40;;;;;;;;;;;;;;;-144.99;100.00;52354.34;5047429;28;20712;-76
2021/09/27 07:28:06;;;;;;;;;;;;;;;-144.99;100.00;52370.63;5045184;28;19999;-76
2021/09/27 07:30:33;;;;;;;;;;;;;;;-144.99;100.00;52370.63;5044744;28;20750;-77
2021/09/27 07:33:00;;;;;;;;;;;;;;;-144.99;100.00;52374.72;5038730;28;20030;-77
2021/09/27 07:35:27;;;;;;;;;;;;;;;-144.99;100.00;52346.19;5043041;28;19996;-77
2021/09/27 07:37:54;;;;;;;;;;;;;;;-144.99;100.00;52407.31;5041150;28;20547;-75
2021/09/27 07:40:21;;;;;;;;;;;;;;;-144.99;100.00;52358.41;5045842;28;19986;-76
2021/09/27 07:42:49;;;;;;;;;;;;;;;-144.99;100.00;52378.78;5043401;28;20437;-76
2021/09/27 07:45:17;;;;;;;;;;;;;;;-144.99;100.00;52378.78;5047923;28;20311;-74
2021/09/27 07:47:44;;;;;;;;;;;;;;;-144.99;100.00;52382.88;5041801;28;20392;-75
2021/09/27 07:50:11;;;;;;;;;;;;;;;-144.99;100.00;52370.63;5045057;28;19977;-75
2021/09/27 07:52:37;;;;;;;;;;;;;;;-144.99;100.00;52366.56;5044626;28;20464;-77
2021/09/27 07:55:05;;;;;;;;;;;;;;;-144.99;100.00;52382.88;5046134;28;19988;-77
2021/09/27 07:57:31;;;;;;;;;;;;;;;-144.99;100.00;52362.50;5043614;28;20049;-74
2021/09/27 07:59:59;;;;;;;;;;;;;;;-144.99;100.00;52346.19;5040807;28;19976;-75
2021/09/27 08:02:29;;;;;;;;;;;;;;;-144.99;100.00;52366.56;5043869;28;19991;-77
2021/09/27 08:04:58;;;;;;;;;;;;;;;-144.99;100.00;52382.88;5042623;28;19976;-76
2021/09/27 08:07:24;;;;;;;;;;;;;;;-144.99;100.00;52366.56;5035493;28;19995;-78
2021/09/27 08:09:51;;;;;;;;;;;;;;;-144.99;100.00;52346.19;5045659;28;19978;-77
2021/09/27 08:12:18;;;;;;;;;;;;;;;-144.99;100.00;52346.19;5046109;28;19977;-76
2021/09/27 08:14:44;;;;;;;;;;;;;;;-144.99;100.00;52378.78;5047459;28;20346;-76
2021/09/27 08:17:12;;;;;;;;;;;;;;;-144.99;100.00;52386.94;5053363;28;19996;-78
2021/09/27 08:19:42;;;;;;;;;;;;;;;-144.99;100.00;52388.97;5054276;28;19985;-76
2021/09/27 08:22:08;;;;;;;;;;;;;;;-144.99;100.00;52329.88;5048409;28;19980;-76
2021/09/27 08:24:35;;;;;;;;;;;;;;;-144.99;100.00;52350.25;4700716;28;10000603;-76
2021/09/27 08:27:02;;;;;;;;;;;;;;;-144.99;100.00;52346.19;5045743;28;19973;-77
2021/09/27 08:29:28;;;;;;;;;;;;;;;-144.99;100.00;52411.41;5053355;28;20334;-77
2021/09/27 08:31:55;;;;;;;;;;;;;;;-144.99;100.00;52423.63;5049623;28;20024;-78
2021/09/27 08:34:22;;;;;;;;;;;;;;;-144.99;100.00;52382.88;5053327;28;19980;-77
2021/09/27 08:36:51;;;;;;;;;;;;;;;-144.99;100.00;52366.56;5052503;28;20011;-76
2021/09/27 08:39:17;;;;;;;;;;;;;;;-144.99;100.00;52366.56;5049638;28;20071;-74
2021/09/27 08:41:49;;;;;;;;;;;;;;;-144.99;100.00;52378.78;5049557;28;19980;-77
2021/09/27 08:44:33;;;;;;;;;;;;;;;-144.99;100.00;52364.53;5051793;28;19981;-78
2021/09/27 08:47:02;;;;;;;;;;;;;;;-144.99;100.00;52358.41;5039953;28;19972;-76
2021/09/27 08:49:35;;;;;;;;;;;;;;;-144.99;100.00;52378.78;5044330;28;20020;-78
2021/09/27 08:52:02;;;;;;;;;;;;;;;-144.99;100.00;52364.53;5045726;28;19972;-77
2021/09/27 08:54:29;;;;;;;;;;;;;;;-144.99;100.00;52354.34;5048175;28;20008;-78
2021/09/27 08:56:59;;;;;;;;;;;;;;;-144.99;100.00;52382.88;5037552;28;19945;-78
2021/09/27 08:59:29;;;;;;;;;;;;;;;-144.99;100.00;52352.28;5040041;28;20015;-78
2021/09/27 09:02:00;;;;;;;;;;;;;;;-144.99;100.00;52399.19;5043054;28;19973;-77
2021/09/27 09:04:30;;;;;;;;;;;;;;;-144.99;100.00;52336.00;5039634;28;19980;-79
2021/09/27 09:07:01;;;;;;;;;;;;;;;-144.99;100.00;52350.25;5059835;28;19972;-78
2021/09/27 09:09:32;;;;;;;;;;;;;;;-144.99;100.00;52374.72;5055302;28;19980;-78
2021/09/27 09:12:01;;;;;;;;;;;;;;;-144.99;100.00;52346.19;5046272;28;19990;-78
2021/09/27 09:14:33;;;;;;;;;;;;;;;-144.99;100.00;52346.19;5052483;28;19980;-76
2021/09/27 09:17:01;;;;;;;;;;;;;;;-144.99;100.00;52354.34;5055063;28;20372;-77
2021/09/27 09:19:29;;;;;;;;;;;;;;;-144.99;100.00;52348.22;5052249;28;19985;-77
2021/09/27 09:21:57;;;;;;;;;;;;;;;-144.99;100.00;52354.34;5053579;28;19990;-77
2021/09/27 09:24:26;;;;;;;;;;;;;;;-144.99;100.00;52319.69;5051855;28;20455;-76
2021/09/27 09:26:53;;;;;;;;;;;;;;;-144.99;100.00;52346.19;5051397;28;19976;-77
2021/09/27 09:29:21;;;;;;;;;;;;;;;-144.99;100.00;52311.53;5050109;28;19983;-78
2021/09/27 09:31:49;;;;;;;;;;;;;;;-144.99;100.00;52378.78;5053168;28;19981;-77
2021/09/27 09:34:28;;;;;;;;;;;;;;;-144.99;100.00;52366.56;5052759;28;19984;-76
2021/09/27 09:36:55;;;;;;;;;;;;;;;-144.99;100.00;52333.94;5052458;28;19997;-77
2021/09/27 09:39:23;;;;;;;;;;;;;;;-144.99;100.00;52321.72;5047179;28;19977;-78
2021/09/27 09:41:53;;;;;;;;;;;;;;;-144.99;100.00;52325.81;5035549;28;19976;-79
2021/09/27 09:44:21;;;;;;;;;;;;;;;-144.99;100.00;52372.69;5053716;28;19975;-77
2021/09/27 09:46:57;;;;;;;;;;;;;;;-144.99;100.00;52342.09;5051079;28;19979;-77
2021/09/27 09:49:23;;;;;;;;;;;;;;;-144.99;100.00;52321.72;5053109;28;20346;-79
2021/09/27 09:52:00;;;;;;;;;;;;;;;-144.99;100.00;52317.66;5049158;28;19978;-77
2021/09/27 09:54:27;;;;;;;;;;;;;;;-144.99;100.00;52329.88;5042415;28;20030;-75
2021/09/27 09:57:04;;;;;;;;;;;;;;;-144.99;100.00;52301.34;5050584;28;20007;-74
2021/09/27 09:59:32;;;;;;;;;;;;;;;-144.99;100.00;52325.81;5049248;28;19980;-74
2021/09/27 10:01:59;;;;;;;;;;;;;;;-144.99;100.00;52285.03;5049463;28;19976;-76
2021/09/27 10:04:26;;;;;;;;;;;;;;;-144.99;100.00;52276.88;5050709;28;19983;-77
2021/09/27 10:06:58;;;;;;;;;;;;;;;-144.99;98.57;52260.56;5050134;28;19994;-77
2021/09/27 10:09:28;;;;;;;;;;;;;;;-144.99;94.64;52280.97;5049232;28;20063;-78
2021/09/27 10:11:55;;;;;;;;;;;;;;;-144.99;93.55;52297.25;5049091;28;19976;-78
2021/09/27 10:14:25;;;;;;;;;;;;;;;-144.99;93.17;52242.22;5051359;28;20450;-78
2021/09/27 10:16:53;;;;;;;;;;;;;;;-144.99;92.49;52252.44;5051744;28;20073;-77
2021/09/27 10:19:24;;;;;;;;;;;;;;;-144.99;92.12;52248.34;5049935;28;19989;-78
2021/09/27 10:21:55;;;;;;;;;;;;;;;-144.99;92.44;52299.31;5037883;28;20430;-78
2021/09/27 10:24:22;;;;;;;;;;;;;;;-144.99;91.97;52321.72;5036584;28;19976;-76
2021/09/27 10:26:50;;;;;;;;;;;;;;;-144.99;92.37;52252.44;5041884;28;19989;-76
2021/09/27 10:29:18;;;;;;;;;;;;;;;-144.99;91.09;52305.41;5048353;28;19975;-78
2021/09/27 10:31:52;;;;;;;;;;;;;;;-144.99;89.26;52278.91;5050869;28;19964;-77
2021/09/27 10:34:20;;;;;;;;;;;;;;;-144.99;90.32;52285.03;5048868;28;19989;-77
2021/09/27 10:36:47;;;;;;;;;;;;;;;-144.99;90.74;52325.81;5039046;28;19998;-77
2021/09/27 10:39:15;;;;;;;;;;;;;;;-144.99;90.40;52305.41;5034569;28;20043;-77
2021/09/27 10:41:43;;;;;;;;;;;;;;;-144.99;91.08;52321.72;5050606;28;19966;-77
2021/09/27 10:44:13;;;;;;;;;;;;;;;-144.99;91.15;52219.81;5050659;28;20330;-78
2021/09/27 10:46:42;;;;;;;;;;;;;;;-144.99;90.72;52297.25;5050623;28;19971;-78
2021/09/27 10:49:12;;;;;;;;;;;;;;;-144.99;90.60;52301.34;5046761;28;20001;-78
2021/09/27 10:51:40;;;;;;;;;;;;;;;-144.99;89.28;52205.53;5043175;28;19974;-77
2021/09/27 10:54:26;;;;;;;;;;;;;;;-144.99;83.55;52238.16;5051033;28;19985;-77
2021/09/27 10:56:54;;;;;;;;;;;;;;;-144.99;81.97;52203.50;5049068;28;19981;-77
2021/09/27 10:59:29;;;;;;;;;;;;;;;-144.99;79.14;52252.44;5049898;28;19953;-77
2021/09/27 11:01:58;;;;;;;;;;;;;;;-144.99;79.61;52256.50;5036314;28;19959;-77
2021/09/27 11:04:35;;;;;;;;;;;;;;;-144.99;78.31;52105.69;5040293;28;19975;-77
2021/09/27 11:07:03;;;;;;;;;;;;;;;-144.99;73.53;52091.41;5045511;28;20010;-77
2021/09/27 11:09:33;;;;;;;;;;;;;;;-144.99;69.82;52117.91;5054865;28;19964;-78
2021/09/27 11:12:03;;;;;;;;;;;;;;;-144.99;66.74;52246.31;5054069;28;19969;-77
2021/09/27 11:14:32;;;;;;;;;;;;;;;-144.99;69.16;52260.56;5044003;28;19976;-77
2021/09/27 11:17:08;;;;;;;;;;;;;;;-144.99;73.68;52223.88;5049549;28;19991;-77
2021/09/27 11:19:39;;;;;;;;;;;;;;;-144.99;75.52;52270.78;5050305;28;19962;-77
2021/09/27 11:22:32;;;;;;;;;;;;;;;-144.99;76.70;52280.97;5048381;28;19971;-76
2021/09/27 11:25:05;;;;;;;;;;;;;;;-144.99;77.45;52283.00;5041320;28;19971;-77
2021/09/27 11:27:34;;;;;;;;;;;;;;;-144.99;79.87;52309.50;5049976;28;19989;-78
2021/09/27 11:30:22;;;;;;;;;;;;;;;-144.99;81.42;52329.88;5047927;28;20326;-77
2021/09/27 11:32:50;;;;;;;;;;;;;;;-144.99;80.94;52280.97;5044945;28;20540;-77
2021/09/27 11:35:39;;;;;;;;;;;;;;;-144.99;79.74;52280.97;5050619;28;19957;-77
2021/09/27 11:38:08;;;;;;;;;;;;;;;-144.99;76.95;52170.91;5066062;28;20437;-80
2021/09/27 11:40:36;;;;;;;;;;;;;;;-144.99;73.47;52156.63;5048586;28;19951;-77
2021/09/27 11:43:11;;;;;;;;;;;;;;;-144.99;68.73;52183.13;5045353;28;19939;-78
2021/09/27 11:45:44;;;;;;;;;;;;;;;-144.99;67.46;52162.75;5046373;28;19962;-77
2021/09/27 11:48:33;;;;;;;;;;;;;;;-144.99;67.77;52256.50;5036974;28;20031;-78
2021/09/27 11:51:17;;;;;;;;;;;;;;;-144.99;71.59;52313.56;5045809;28;19949;-76
2021/09/27 11:54:01;;;;;;;;;;;;;;;-144.99;73.77;52289.13;5039772;28;20188;-78
2021/09/27 11:56:30;;;;;;;;;;;;;;;-144.99;74.30;52223.88;5028165;28;20175;-77
2021/09/27 11:59:01;;;;;;;;;;;;;;;-144.99;73.96;52301.34;5042086;28;19964;-79
2021/09/27 12:01:36;;;;;;;;;;;;;;;-144.99;75.58;52268.72;5034780;28;19952;-77
2021/09/27 12:04:12;;;;;;;;;;;;;;;-144.99;77.67;52250.38;5047247;28;20096;-77
2021/09/27 12:06:41;;;;;;;;;;;;;;;-144.99;76.40;52289.13;5047375;28;19962;-77
2021/09/27 12:09:11;;;;;;;;;;;;;;;-144.99;76.57;52252.44;5048692;28;19991;-77
2021/09/27 12:11:46;;;;;;;;;;;;;;;-144.99;76.22;52285.03;5041989;28;19965;-77
2021/09/27 12:14:17;;;;;;;;;;;;;;;-144.99;74.27;52227.97;5038733;28;19978;-77
2021/09/27 12:16:47;;;;;;;;;;;;;;;-144.99;71.28;52209.63;5047136;28;20006;-75
2021/09/27 12:19:15;;;;;;;;;;;;;;;-144.99;68.50;52250.38;5047769;28;19979;-77
2021/09/27 12:21:44;;;;;;;;;;;;;;;-144.99;69.09;52270.78;5043755;28;20341;-77
2021/09/27 12:24:12;;;;;;;;;;;;;;;-144.99;70.24;52272.81;5038203;28;19960;-77
2021/09/27 12:26:40;;;;;;;;;;;;;;;-144.99;71.73;52280.97;5033251;28;20499;-80
2021/09/27 12:29:10;;;;;;;;;;;;;;;-144.99;71.88;52195.34;5048899;28;19979;-77
2021/09/27 12:31:37;;;;;;;;;;;;;;;-144.99;71.40;52170.91;5046498;28;20420;-78
2021/09/27 12:34:11;;;;;;;;;;;;;;;-144.99;66.45;52136.25;5047944;28;20344;-77
2021/09/27 12:36:38;;;;;;;;;;;;;;;-144.99;65.21;52260.56;5047800;28;20340;-76
2021/09/27 12:39:06;;;;;;;;;;;;;;;-144.99;65.28;52262.63;5048417;28;19977;-78